Time;durP1;ratioP1;P1;durP2;ratioP2;P2;SDS_P1;SDS_P2;PMS_P1;PMS_P2;Temp;Humidity;BMP_temperature;BMP_pressure;BME280_temperature;BME280_humidity;BME280_pressure;Samples;Min_cycle;Max_cycle;Signal;HPM_P1;HPM_P2
2021/10/21 00:01:08;;;;;;;0.50;0.30;;;;;;;21.86;36.00;97953.19;5069835;28;20075;-55
2021/10/21 00:03:36;;;;;;;0.25;0.13;;;;;;;21.85;36.11;97957.75;5060172;28;20405;-54
2021/10/21 00:06:05;;;;;;;0.50;0.30;;;;;;;21.84;36.11;97964.22;5063300;28;20494;-56
2021/10/21 00:08:33;;;;;;;0.82;0.35;;;;;;;21.84;36.31;97966.91;5075225;28;20548;-56
2021/10/21 00:11:01;;;;;;;0.32;0.13;;;;;;;21.84;36.25;97966.09;5083121;28;20534;-53
2021/10/21 00:13:28;;;;;;;0.43;0.30;;;;;;;21.84;36.26;97966.09;5076094;28;20056;-56
2021/10/21 00:15:56;;;;;;;0.85;0.40;;;;;;;21.84;36.16;97972.34;5057236;28;20041;-50
2021/10/21 00:18:24;;;;;;;0.63;0.20;;;;;;;21.84;36.11;97964.22;5082996;28;20064;-52
2021/10/21 00:20:52;;;;;;;0.20;0.10;;;;;;;21.84;36.23;97969.63;5104157;28;20056;-50
2021/10/21 00:23:22;;;;;;;0.20;0.10;;;;;;;21.85;36.15;97962.34;5072568;28;20060;-55
2021/10/21 00:25:50;;;;;;;0.40;0.25;;;;;;;21.83;36.11;97967.97;5065312;28;20037;-54
2021/10/21 00:28:18;;;;;;;0.22;0.20;;;;;;;21.84;36.24;97969.63;5060518;28;20060;-57
2021/10/21 00:30:47;;;;;;;0.95;0.20;;;;;;;21.76;36.34;97950.78;5069741;28;20053;-55
2021/10/21 00:33:15;;;;;;;0.20;0.10;;;;;;;21.85;36.38;97959.63;5088786;28;20056;-59
2021/10/21 00:35:42;;;;;;;0.38;0.10;;;;;;;21.85;36.41;97956.94;5080961;28;20052;-52
2021/10/21 00:38:11;;;;;;;0.70;0.20;;;;;;;21.84;36.35;97964.22;5058715;28;20052;-53
2021/10/21 00:40:40;;;;;;;0.63;0.30;;;;;;;21.84;36.41;97968.78;5072661;28;20060;-54
2021/10/21 00:43:09;;;;;;;0.43;0.10;;;;;;;21.82;36.44;97968.13;5064189;28;20509;-53
2021/10/21 00:45:37;;;;;;;0.30;0.15;;;;;;;21.82;36.50;97960.84;5077691;28;20056;-53
2021/10/21 00:48:05;;;;;;;0.20;0.10;;;;;;;21.83;36.50;97965.25;5071012;28;20057;-58
2021/10/21 00:50:33;;;;;;;0.60;0.10;;;;;;;21.83;36.43;97957.13;5073001;28;20657;-54
2021/10/21 00:53:01;;;;;;;0.90;0.20;;;;;;;21.84;36.67;97963.38;5057363;28;20061;-54
2021/10/21 00:55:28;;;;;;;0.28;0.28;;;;;;;21.82;36.63;97968.13;5089764;28;20059;-56
2021/10/21 00:57:58;;;;;;;0.32;0.13;;;;;;;21.82;36.67;97973.53;5072337;28;20048;-56
2021/10/21 01:00:26;;;;;;;0.28;0.17;;;;;;;21.83;36.63;97964.38;5068644;28;20068;-55
2021/10/21 01:02:54;;;;;;;0.20;0.20;;;;;;;21.80;36.58;97971.03;5086559;28;20060;-54
2021/10/21 01:05:22;;;;;;;0.70;0.20;;;;;;;21.82;36.86;97979.78;5088301;28;20052;-54
2021/10/21 01:07:50;;;;;;;0.60;0.32;;;;;;;21.83;36.57;97983.31;5065962;28;20056;-50
2021/10/21 01:10:17;;;;;;;0.25;0.22;;;;;;;21.82;36.63;97977.09;5068743;28;20057;-55
2021/10/21 01:12:47;;;;;;;0.35;0.10;;;;;;;21.81;36.66;97975.41;5061202;28;20059;-57
2021/10/21 01:15:18;;;;;;;0.65;0.20;;;;;;;21.82;36.53;97992.47;5083214;28;20056;-55
2021/10/21 01:17:46;;;;;;;0.20;0.10;;;;;;;21.82;36.66;97990.63;5090498;28;20146;-54
2021/10/21 01:20:15;;;;;;;0.30;0.10;;;;;;;21.82;36.58;97993.31;5068745;28;20436;-55
2021/10/21 01:22:42;;;;;;;0.13;0.13;;;;;;;21.83;36.82;98003.13;5082843;28;20071;-54
2021/10/21 01:25:11;;;;;;;0.20;0.20;;;;;;;21.82;36.87;98014.97;5083130;28;20074;-56
2021/10/21 01:27:40;;;;;;;0.32;0.13;;;;;;;21.81;36.85;98007.88;5088415;28;20424;-56
2021/10/21 01:30:13;;;;;;;0.90;0.30;;;;;;;21.81;36.75;98010.59;5073690;28;20052;-58
2021/10/21 01:32:41;;;;;;;0.55;0.10;;;;;;;21.81;36.87;98021.41;5083894;28;20059;-49
2021/10/21 01:35:09;;;;;;;0.52;0.20;;;;;;;21.81;36.74;98032.25;5080136;28;20512;-57
2021/10/21 01:37:38;;;;;;;0.10;0.10;;;;;;;21.82;36.79;98027.66;5086659;28;20053;-56
2021/10/21 01:40:10;;;;;;;0.40;0.10;;;;;;;21.81;37.07;98032.25;5074757;28;20052;-54
2021/10/21 01:42:38;;;;;;;1.02;0.20;;;;;;;21.81;37.02;98029.53;5067724;28;20390;-52
2021/10/21 01:45:14;;;;;;;0.20;0.10;;;;;;;21.83;36.84;98034.75;5069664;28;20048;-55
2021/10/21 01:47:42;;;;;;;0.13;0.13;;;;;;;21.82;36.90;98022.25;5079294;28;20059;-53
2021/10/21 01:50:10;;;;;;;0.20;0.10;;;;;;;21.82;36.71;98008.72;5064777;28;20052;-55
2021/10/21 01:52:39;;;;;;;0.90;0.30;;;;;;;21.81;36.79;98017.88;5079582;28;20063;-50
2021/10/21 01:55:08;;;;;;;0.10;0.10;;;;;;;21.81;36.92;98012.47;5079702;28;20614;-54
2021/10/21 01:57:37;;;;;;;0.35;0.10;;;;;;;21.80;37.01;98019.75;5099481;28;20055;-53
2021/10/21 02:00:06;;;;;;;1.27;0.35;;;;;;;21.67;36.87;97998.75;5085781;28;20401;-55
2021/10/21 02:02:42;;;;;;;0.45;0.13;;;;;;;21.72;36.89;98003.59;5078024;28;20053;-50
2021/10/21 02:05:10;;;;;;;0.10;0.08;;;;;;;21.79;36.98;98000.97;5078094;28;20063;-52
2021/10/21 02:07:39;;;;;;;0.05;0.00;;;;;;;21.80;36.86;98013.50;5083120;28;20051;-51
2021/10/21 02:10:07;;;;;;;1.00;0.20;;;;;;;21.80;36.99;98022.44;5084437;28;20059;-52
2021/10/21 02:12:35;;;;;;;0.45;0.20;;;;;;;21.80;37.05;98027.03;5063236;28;20059;-56
2021/10/21 02:15:04;;;;;;;0.20;0.20;;;;;;;21.80;36.98;98035.97;5073750;28;20063;-56
2021/10/21 02:17:31;;;;;;;0.20;0.20;;;;;;;21.81;37.02;98028.69;5078746;28;20040;-56
2021/10/21 02:19:59;;;;;;;0.20;0.20;;;;;;;21.80;37.23;98025.16;5069338;28;20049;-49
2021/10/21 02:22:27;;;;;;;0.52;0.15;;;;;;;21.80;37.09;98018.91;5083856;28;20052;-53
2021/10/21 02:24:57;;;;;;;0.63;0.20;;;;;;;21.80;37.13;98019.75;5063524;28;20429;-53
2021/10/21 02:27:25;;;;;;;0.20;0.10;;;;;;;21.81;37.04;98020.59;5074521;28;20060;-54
2021/10/21 02:29:53;;;;;;;0.40;0.10;;;;;;;21.74;37.22;98020.47;5072471;28;20049;-57
2021/10/21 02:32:21;;;;;;;0.40;0.20;;;;;;;21.79;37.01;98026.16;5066751;28;20060;-54
2021/10/21 02:34:48;;;;;;;0.10;0.10;;;;;;;21.78;37.15;98016.38;5089857;28;20059;-53
2021/10/21 02:37:16;;;;;;;0.10;0.08;;;;;;;21.79;37.14;98023.44;5061997;28;20434;-55
2021/10/21 02:39:44;;;;;;;0.30;0.10;;;;;;;21.80;37.08;98025.16;5072701;28;20051;-55
2021/10/21 02:42:14;;;;;;;0.77;0.47;;;;;;;21.80;37.25;98027.03;5068504;28;20052;-56
2021/10/21 02:44:41;;;;;;;0.28;0.28;;;;;;;21.78;37.17;98024.50;5066226;28;20048;-56
2021/10/21 02:47:09;;;;;;;0.10;0.10;;;;;;;21.68;37.25;98008.53;5075499;28;20040;-56
2021/10/21 02:49:37;;;;;;;0.85;0.20;;;;;;;21.78;37.33;98026.38;5076386;28;20058;-54
2021/10/21 02:52:05;;;;;;;0.30;0.30;;;;;;;21.80;37.27;98035.16;5085361;28;20053;-55
2021/10/21 02:54:33;;;;;;;0.50;0.17;;;;;;;21.77;37.20;98039.06;5063027;28;20421;-55
2021/10/21 02:57:01;;;;;;;0.10;0.10;;;;;;;21.80;37.35;98037.84;5075612;28;20055;-56
2021/10/21 02:59:30;;;;;;;1.08;0.30;;;;;;;21.80;37.26;98043.25;5081871;28;20048;-57
2021/10/21 03:01:58;;;;;;;0.38;0.30;;;;;;;21.80;37.25;98037.84;5059480;28;20056;-55
2021/10/21 03:04:27;;;;;;;1.15;0.47;;;;;;;21.80;37.36;98043.25;5069882;28;20052;-54
2021/10/21 03:06:55;;;;;;;0.52;0.30;;;;;;;21.77;37.49;98047.16;5078906;28;20413;-55
2021/10/21 03:09:23;;;;;;;0.10;0.08;;;;;;;21.75;37.38;98037.56;5077497;28;20056;-54
2021/10/21 03:11:51;;;;;;;0.30;0.10;;;;;;;21.79;37.32;98049.69;5072516;28;20422;-55
2021/10/21 03:14:19;;;;;;;0.63;0.30;;;;;;;21.77;37.24;98044.47;5066428;28;20048;-55
2021/10/21 03:16:48;;;;;;;0.20;0.10;;;;;;;21.79;37.41;98058.63;5079616;28;20069;-54
2021/10/21 03:19:16;;;;;;;0.60;0.20;;;;;;;21.79;37.42;98046.97;5069875;28;20066;-53
2021/10/21 03:21:44;;;;;;;0.25;0.13;;;;;;;21.75;37.36;98042.97;5083160;28;20516;-57
2021/10/21 03:24:12;;;;;;;0.68;0.22;;;;;;;21.79;37.26;98058.63;5070598;28;20167;-54
2021/10/21 03:26:40;;;;;;;0.20;0.10;;;;;;;21.79;37.43;98050.50;5062646;28;20048;-55
2021/10/21 03:29:08;;;;;;;0.25;0.10;;;;;;;21.78;37.44;98059.66;5065210;28;20052;-57
2021/10/21 03:31:36;;;;;;;0.40;0.03;;;;;;;21.78;37.44;98056.13;5068059;28;20060;-54
2021/10/21 03:34:06;;;;;;;0.10;0.10;;;;;;;21.78;37.51;98056.97;5063819;28;20065;-57
2021/10/21 03:36:34;;;;;;;0.45;0.10;;;;;;;21.78;37.40;98056.13;5069269;28;20036;-53
2021/10/21 03:39:02;;;;;;;0.30;0.10;;;;;;;21.78;37.35;98040.72;5051215;28;20061;-53
2021/10/21 03:41:30;;;;;;;0.20;0.10;;;;;;;21.78;37.50;98053.41;5078700;28;20066;-55
2021/10/21 03:43:58;;;;;;;0.57;0.28;;;;;;;21.78;37.38;98051.56;5068527;28;20045;-56
2021/10/21 03:46:26;;;;;;;0.55;0.20;;;;;;;21.78;37.46;98045.31;5073290;28;20071;-57
2021/10/21 03:48:53;;;;;;;0.30;0.15;;;;;;;21.77;37.45;98049.88;5057791;28;20041;-55
2021/10/21 03:51:22;;;;;;;0.20;0.17;;;;;;;21.78;37.53;98039.88;5067246;28;20063;-54
2021/10/21 03:53:50;;;;;;;0.77;0.20;;;;;;;21.78;37.48;98050.72;5075682;28;20059;-52
2021/10/21 03:56:18;;;;;;;0.30;0.10;;;;;;;21.78;37.50;98053.41;5063541;28;20060;-55
2021/10/21 03:58:46;;;;;;;0.30;0.20;;;;;;;21.77;37.44;98049.88;5058464;28;20060;-53
2021/10/21 04:01:13;;;;;;;0.32;0.20;;;;;;;21.77;37.45;98066.13;5058908;28;20057;-57
2021/10/21 04:03:41;;;;;;;0.15;0.10;;;;;;;21.77;37.44;98066.13;5066887;28;20402;-56
2021/10/21 04:06:09;;;;;;;0.28;0.20;;;;;;;21.77;37.35;98055.28;5055386;28;20056;-55
2021/10/21 04:08:38;;;;;;;0.60;0.25;;;;;;;21.76;37.43;98064.44;5077013;28;20052;-54
2021/10/21 04:11:07;;;;;;;0.32;0.28;;;;;;;21.75;37.48;98065.44;5063103;28;20060;-55
2021/10/21 04:13:36;;;;;;;0.40;0.30;;;;;;;21.78;37.31;98066.94;5068308;28;20053;-57
2021/10/21 04:16:04;;;;;;;0.82;0.20;;;;;;;21.77;37.45;98068.81;5065184;28;20060;-55
2021/10/21 04:18:31;;;;;;;0.45;0.30;;;;;;;21.76;37.61;98075.25;5069989;28;20491;-53
2021/10/21 04:20:59;;;;;;;0.68;0.20;;;;;;;21.76;37.37;98072.56;5078723;28;20060;-56
2021/10/21 04:23:27;;;;;;;0.50;0.20;;;;;;;21.75;37.43;98073.56;5061036;28;20053;-55
2021/10/21 04:25:57;;;;;;;0.75;0.40;;;;;;;21.74;37.48;98065.66;5078859;28;20056;-55
2021/10/21 04:28:25;;;;;;;0.40;0.20;;;;;;;21.76;37.35;98077.09;5064248;28;20053;-55
2021/10/21 04:30:53;;;;;;;0.77;0.40;;;;;;;21.77;37.58;98076.94;5074237;28;20490;-57
2021/10/21 04:33:21;;;;;;;0.55;0.20;;;;;;;21.77;37.36;98081.50;5057957;28;20056;-53
2021/10/21 04:35:49;;;;;;;0.93;0.40;;;;;;;21.77;37.59;98079.66;5060902;28;20060;-57
2021/10/21 04:38:17;;;;;;;1.52;0.70;;;;;;;21.77;37.34;98078.81;5075007;28;20052;-54
2021/10/21 04:40:45;;;;;;;0.43;0.30;;;;;;;21.77;37.34;98081.50;5068147;28;20090;-55
2021/10/21 04:43:14;;;;;;;0.30;0.30;;;;;;;21.75;37.48;98076.28;5064480;28;20401;-56
2021/10/21 04:45:41;;;;;;;0.60;0.20;;;;;;;21.76;37.51;98086.09;5065554;28;20048;-58
2021/10/21 04:48:09;;;;;;;0.90;0.30;;;;;;;21.75;37.41;98078.97;5088153;28;20068;-58
2021/10/21 04:50:37;;;;;;;0.77;0.40;;;;;;;21.73;37.49;98082.88;5069352;28;20062;-54
2021/10/21 04:53:06;;;;;;;0.93;0.45;;;;;;;21.75;37.45;98087.09;5066825;28;20083;-57
2021/10/21 04:55:35;;;;;;;0.43;0.28;;;;;;;21.75;37.44;98076.28;5070706;28;20056;-57
2021/10/21 04:58:03;;;;;;;0.70;0.32;;;;;;;21.75;37.66;98076.28;5072591;28;20056;-57
2021/10/21 05:00:32;;;;;;;0.85;0.40;;;;;;;21.76;37.51;98080.69;5061990;28;20479;-55
2021/10/21 05:03:06;;;;;;;0.38;0.30;;;;;;;21.77;37.44;98078.81;5068638;28;20067;-53
2021/10/21 05:05:35;;;;;;;0.77;0.28;;;;;;;21.76;37.36;98082.53;5063925;28;20049;-57
2021/10/21 05:08:04;;;;;;;1.08;0.40;;;;;;;21.75;37.51;98062.75;5070826;28;20485;-58
2021/10/21 05:10:32;;;;;;;1.00;0.50;;;;;;;21.74;37.56;98071.06;5079552;28;20061;-57
2021/10/21 05:12:59;;;;;;;1.73;0.50;;;;;;;21.75;37.45;98073.56;5076603;28;20065;-58
2021/10/21 05:15:28;;;;;;;0.80;0.63;;;;;;;21.75;37.49;98078.97;5068503;28;20052;-59
2021/10/21 05:17:58;;;;;;;1.38;0.50;;;;;;;21.74;37.39;98071.88;5071150;28;20063;-55
2021/10/21 05:20:26;;;;;;;1.40;0.57;;;;;;;21.74;37.46;98082.72;5064858;28;20052;-54
2021/10/21 05:22:55;;;;;;;0.55;0.30;;;;;;;21.75;37.45;98080.84;5063182;28;20044;-57
2021/10/21 05:25:23;;;;;;;1.02;0.50;;;;;;;21.75;37.49;98084.38;5062192;28;20056;-57
2021/10/21 05:27:50;;;;;;;1.80;0.60;;;;;;;21.74;37.49;98077.31;5066803;28;20535;-55
2021/10/21 05:30:18;;;;;;;1.27;0.60;;;;;;;21.74;37.49;98077.31;5070470;28;20048;-59
2021/10/21 05:32:47;;;;;;;2.25;0.60;;;;;;;21.75;37.55;98084.38;5061862;28;20068;-57
2021/10/21 05:35:16;;;;;;;2.35;0.65;;;;;;;21.74;37.37;98088.13;5056840;28;20058;-55
2021/10/21 05:37:44;;;;;;;1.27;0.60;;;;;;;21.61;37.44;98075.22;5071049;28;20055;-53
2021/10/21 05:40:12;;;;;;;0.70;0.30;;;;;;;21.73;37.38;98097.28;5060242;28;20059;-55
2021/10/21 05:42:39;;;;;;;1.17;0.65;;;;;;;21.73;37.50;98089.16;5065472;28;20148;-55
2021/10/21 05:45:08;;;;;;;1.60;0.63;;;;;;;21.72;37.34;98092.88;5062633;28;20708;-52
2021/10/21 05:47:37;;;;;;;2.00;0.60;;;;;;;21.73;37.39;98091.88;5067005;28;20059;-55
2021/10/21 05:50:05;;;;;;;0.77;0.57;;;;;;;21.74;37.48;98096.25;5061704;28;20060;-54
2021/10/21 05:52:35;;;;;;;0.93;0.40;;;;;;;21.73;37.43;98093.72;5059013;28;20513;-54
2021/10/21 05:55:03;;;;;;;1.05;0.70;;;;;;;21.74;37.38;98095.41;5063046;28;20063;-53
2021/10/21 05:57:31;;;;;;;1.08;0.55;;;;;;;21.73;37.45;98096.41;5055910;28;20044;-57
2021/10/21 05:59:59;;;;;;;1.52;0.60;;;;;;;21.74;37.38;98095.41;5059763;28;20048;-54
2021/10/21 06:02:26;;;;;;;1.42;0.65;;;;;;;21.73;37.40;98091.88;5058270;28;20500;-55
2021/10/21 06:04:54;;;;;;;1.88;0.60;;;;;;;21.71;37.31;98093.91;5057882;28;20064;-55
2021/10/21 06:07:22;;;;;;;1.25;0.57;;;;;;;21.74;37.57;98100.81;5062294;28;20053;-57
2021/10/21 06:09:56;;;;;;;1.60;0.70;;;;;;;21.73;37.40;98101.81;5057232;28;20052;-54
2021/10/21 06:12:24;;;;;;;3.22;0.82;;;;;;;21.73;37.22;98113.50;5058043;28;20142;-51
2021/10/21 06:14:51;;;;;;;1.83;0.68;;;;;;;21.72;37.49;98114.50;5061899;28;20053;-53
2021/10/21 06:17:24;;;;;;;0.82;0.52;;;;;;;21.56;37.42;98093.88;5058622;28;20045;-56
2021/10/21 06:19:52;;;;;;;1.38;0.90;;;;;;;21.72;37.36;98125.34;5060571;28;20076;-53
2021/10/21 06:22:20;;;;;;;1.60;1.00;;;;;;;21.73;37.37;98137.00;5061416;28;20049;-55
2021/10/21 06:24:48;;;;;;;2.25;1.40;;;;;;;21.72;37.30;98135.31;5055334;28;20061;-55
2021/10/21 06:27:17;;;;;;;1.35;0.80;;;;;;;21.73;37.42;98139.69;5056932;28;20049;-57
2021/10/21 06:29:46;;;;;;;2.13;0.90;;;;;;;21.72;37.30;98136.16;5064004;28;20056;-55
2021/10/21 06:32:14;;;;;;;2.05;0.77;;;;;;;21.73;37.45;98142.41;5057566;28;20397;-53
2021/10/21 06:34:42;;;;;;;2.60;1.40;;;;;;;21.73;37.43;98131.59;5055328;28;20059;-57
2021/10/21 06:37:09;;;;;;;1.30;0.65;;;;;;;21.71;37.40;98131.78;5053854;28;20049;-56
2021/10/21 06:39:37;;;;;;;1.60;0.90;;;;;;;21.73;37.52;98135.16;5047451;28;20057;-55
2021/10/21 06:42:05;;;;;;;1.73;0.77;;;;;;;21.72;37.42;98136.16;5053247;28;20477;-54
2021/10/21 06:44:34;;;;;;;1.40;0.77;;;;;;;21.73;37.43;98140.56;5055461;28;20063;-52
2021/10/21 06:47:02;;;;;;;1.10;0.80;;;;;;;21.72;37.44;98144.28;5060413;28;20048;-55
2021/10/21 06:49:30;;;;;;;2.03;0.80;;;;;;;21.72;37.46;98143.44;5063855;28;20056;-54
2021/10/21 06:51:59;;;;;;;1.38;0.88;;;;;;;21.74;37.36;98146.81;5053167;28;20445;-56
2021/10/21 06:54:26;;;;;;;2.03;1.08;;;;;;;21.74;37.36;98149.53;5054114;28;20061;-54
2021/10/21 06:56:54;;;;;;;1.65;0.70;;;;;;;21.72;37.47;98144.28;5051642;28;20053;-53
2021/10/21 06:59:22;;;;;;;2.42;0.88;;;;;;;21.73;37.36;98148.69;5062256;28;20049;-57
2021/10/21 07:01:51;;;;;;;1.10;0.73;;;;;;;21.73;37.56;98153.22;5050377;28;20623;-53
2021/10/21 07:04:21;;;;;;;2.63;1.15;;;;;;;21.65;37.53;98146.03;5053796;28;21268;-56
2021/10/21 07:06:50;;;;;;;2.22;0.80;;;;;;;21.69;37.60;98158.16;5051133;28;20041;-56
2021/10/21 07:09:18;;;;;;;1.55;0.85;;;;;;;21.74;37.49;98171.16;5055142;28;20052;-57
2021/10/21 07:11:46;;;;;;;2.35;1.05;;;;;;;21.70;37.53;98153.63;5051197;28;20055;-51
2021/10/21 07:14:16;;;;;;;2.63;0.80;;;;;;;21.73;37.51;98155.94;5030646;28;20060;-52
2021/10/21 07:16:44;;;;;;;2.33;1.00;;;;;;;21.72;37.50;98165.94;5051221;28;20404;-53
2021/10/21 07:19:13;;;;;;;1.58;1.00;;;;;;;21.70;37.52;98161.75;5050734;28;20063;-53
2021/10/21 07:21:43;;;;;;;2.08;1.00;;;;;;;21.74;37.59;98154.94;5055928;28;20052;-55
2021/10/21 07:24:13;;;;;;;2.08;0.75;;;;;;;21.74;38.46;98158.47;5056465;28;20071;-54
2021/10/21 07:26:42;;;;;;;2.17;1.02;;;;;;;21.74;38.47;98169.31;5054593;28;20048;-57
2021/10/21 07:29:10;;;;;;;1.60;0.95;;;;;;;21.74;38.73;98165.75;5051562;28;20138;-53
2021/10/21 07:31:38;;;;;;;2.08;0.93;;;;;;;21.70;38.67;98170.69;5064247;28;20056;-54
2021/10/21 07:34:05;;;;;;;1.77;0.90;;;;;;;21.75;38.95;98179.09;5042412;28;20057;-55
2021/10/21 07:36:35;;;;;;;1.95;0.77;;;;;;;21.39;38.80;98122.94;5045677;28;20052;-56
2021/10/21 07:39:03;;;;;;;2.50;0.80;;;;;;;21.57;38.84;98140.72;5023818;28;20057;-55
2021/10/21 07:41:31;;;;;;;1.27;0.82;;;;;;;21.75;38.99;98180.97;5059617;28;20067;-55
2021/10/21 07:43:58;;;;;;;2.33;1.15;;;;;;;21.75;38.99;98187.22;5043050;28;20159;-58
2021/10/21 07:46:26;;;;;;;2.80;1.10;;;;;;;21.76;39.01;98194.31;5048715;28;20052;-55
2021/10/21 07:48:54;;;;;;;1.85;1.00;;;;;;;21.77;39.07;98193.28;5045815;28;20049;-53
2021/10/21 07:51:22;;;;;;;2.33;1.77;;;;;;;21.78;39.02;98199.53;5045544;28;20052;-54
2021/10/21 07:53:52;;;;;;;1.48;0.70;;;;;;;21.78;39.26;98202.25;5045279;28;20060;-58
2021/10/21 07:56:20;;;;;;;2.25;1.25;;;;;;;21.78;39.22;98200.38;5049634;28;20048;-54
2021/10/21 07:58:48;;;;;;;2.08;1.10;;;;;;;21.77;39.00;98201.41;5045755;28;20056;-54
2021/10/21 08:01:16;;;;;;;3.38;1.30;;;;;;;21.73;39.22;98194.69;5044529;28;20052;-56
2021/10/21 08:03:44;;;;;;;1.77;0.88;;;;;;;21.80;39.13;98211.03;5052893;28;20523;-55
2021/10/21 08:06:12;;;;;;;1.88;1.20;;;;;;;21.76;39.16;98205.16;5041824;28;20599;-54
2021/10/21 08:08:40;;;;;;;1.85;0.93;;;;;;;21.79;39.06;98204.75;5044959;28;20071;-53
2021/10/21 08:11:10;;;;;;;2.45;1.25;;;;;;;21.81;39.18;98196.47;5047005;28;20540;-53
2021/10/21 08:13:38;;;;;;;1.23;0.77;;;;;;;21.80;39.35;98209.16;5043364;28;20037;-53
2021/10/21 08:16:06;;;;;;;2.95;1.30;;;;;;;21.80;39.97;98206.47;5046947;28;20045;-57
2021/10/21 08:18:35;;;;;;;2.72;1.20;;;;;;;21.90;40.27;98217.00;5044017;28;20513;-50
2021/10/21 08:21:03;;;;;;;2.15;1.20;;;;;;;21.99;40.96;98223.22;5045000;28;20052;-55
2021/10/21 08:23:31;;;;;;;2.30;1.02;;;;;;;22.02;41.08;98223.69;5049010;28;20060;-57
2021/10/21 08:25:59;;;;;;;2.72;1.48;;;;;;;22.04;41.25;98227.06;5046736;28;20055;-52
2021/10/21 08:28:28;;;;;;;1.40;0.95;;;;;;;22.09;41.39;98216.50;5048083;28;20052;-53
2021/10/21 08:30:56;;;;;;;2.30;1.30;;;;;;;22.12;41.38;98221.56;5049155;28;20057;-50
2021/10/21 08:33:24;;;;;;;3.00;1.20;;;;;;;22.13;41.50;98209.69;5047745;28;20057;-49
2021/10/21 08:35:52;;;;;;;3.25;1.30;;;;;;;22.14;41.46;98219.53;5049771;28;20513;-51
2021/10/21 08:38:20;;;;;;;2.72;1.30;;;;;;;22.14;41.44;98222.22;5046381;28;20052;-51
2021/10/21 08:40:48;;;;;;;3.00;1.38;;;;;;;22.17;41.33;98218.31;5040789;28;20044;-50
2021/10/21 08:43:16;;;;;;;2.58;1.30;;;;;;;22.19;41.45;98232.53;5044556;28;20056;-54
2021/10/21 08:45:47;;;;;;;3.92;1.48;;;;;;;22.15;41.68;98229.34;5047169;28;20682;-50
2021/10/21 08:48:15;;;;;;;3.42;1.30;;;;;;;22.21;41.56;98238.59;5046121;28;20060;-55
2021/10/21 08:50:43;;;;;;;2.13;1.40;;;;;;;22.24;41.78;98235.50;5044186;28;20037;-56
2021/10/21 08:53:11;;;;;;;2.53;1.27;;;;;;;22.28;41.68;98235.97;5049067;28;20052;-56
2021/10/21 08:55:39;;;;;;;2.97;1.33;;;;;;;22.27;41.77;98234.31;5044067;28;20114;-57
2021/10/21 08:58:08;;;;;;;3.10;1.23;;;;;;;22.31;41.67;98238.31;5024134;28;20171;-49
2021/10/21 09:00:38;;;;;;;2.17;1.27;;;;;;;22.31;41.71;98236.44;5046753;28;20051;-56
2021/10/21 09:03:14;;;;;;;2.40;1.20;;;;;;;22.34;41.69;98235.25;5040148;28;20416;-53
2021/10/21 09:05:50;;;;;;;2.13;1.15;;;;;;;22.35;41.68;98229.63;5045904;28;20086;-55
2021/10/21 09:08:20;;;;;;;2.80;1.30;;;;;;;22.36;41.58;98241.34;5045851;28;20057;-53
2021/10/21 09:10:49;;;;;;;2.65;1.38;;;;;;;22.39;41.47;98240.94;5044598;28;20934;-55
2021/10/21 09:13:24;;;;;;;2.15;1.23;;;;;;;22.43;41.49;98252.25;5045582;28;20076;-54
2021/10/21 09:15:54;;;;;;;3.22;1.65;;;;;;;22.40;41.43;98258.91;5047828;28;20568;-54
2021/10/21 09:18:25;;;;;;;2.15;1.00;;;;;;;22.44;41.24;98256.66;5049582;28;20066;-53
2021/10/21 09:20:55;;;;;;;2.58;1.10;;;;;;;22.54;41.39;98257.22;5044403;28;20057;-58
2021/10/21 09:23:27;;;;;;;2.80;1.13;;;;;;;22.73;40.98;98255.81;5040350;28;20060;-57
2021/10/21 09:26:05;;;;;;;3.20;1.20;;;;;;;22.80;40.77;98260.31;5048943;28;20063;-50
2021/10/21 09:28:33;;;;;;;5.47;1.52;;;;;;;22.85;40.67;98257.88;5040809;28;20083;-53
2021/10/21 09:31:03;;;;;;;4.05;1.70;;;;;;;22.87;40.81;98258.53;5041925;28;20062;-50
2021/10/21 09:33:42;;;;;;;3.63;1.33;;;;;;;22.88;40.62;98270.19;5038727;28;20724;-53
2021/10/21 09:36:11;;;;;;;3.33;1.38;;;;;;;22.87;40.69;98258.53;5039638;28;20053;-55
2021/10/21 09:38:50;;;;;;;2.13;1.25;;;;;;;22.80;40.73;98268.44;5046593;28;20155;-60
2021/10/21 09:41:18;;;;;;;4.90;1.67;;;;;;;22.79;40.77;98266.75;5035593;28;20052;-55
2021/10/21 09:43:48;;;;;;;4.07;1.27;;;;;;;22.79;40.78;98272.19;5036801;28;20041;-55
2021/10/21 09:46:40;;;;;;;3.58;1.90;;;;;;;22.83;40.98;98269.94;5035369;28;20049;-56
2021/10/21 09:49:29;;;;;;;2.80;1.00;;;;;;;22.81;40.87;98267.38;5042348;28;21475;-54
2021/10/21 09:51:57;;;;;;;4.07;1.20;;;;;;;23.04;40.47;98252.94;5035415;28;20053;-50
2021/10/21 09:54:25;;;;;;;3.08;1.58;;;;;;;23.36;39.63;98262.50;5040794;28;20048;-53
2021/10/21 09:57:00;;;;;;;4.90;1.42;;;;;;;23.52;39.24;98256.84;5035862;28;20052;-57
2021/10/21 09:59:29;;;;;;;2.10;1.05;;;;;;;23.65;38.96;98272.41;5040249;28;20056;-53
2021/10/21 10:01:58;;;;;;;4.82;1.30;;;;;;;23.72;39.08;98270.63;5041751;28;20637;-51
2021/10/21 10:04:28;;;;;;;2.70;1.40;;;;;;;23.79;38.81;98276.13;5033700;28;20462;-52
2021/10/21 10:06:58;;;;;;;3.15;1.92;;;;;;;23.80;38.85;98289.53;5047303;28;20053;-58
2021/10/21 10:09:30;;;;;;;3.83;1.20;;;;;;;23.79;38.81;98295.13;5033057;28;20052;-57
2021/10/21 10:12:01;;;;;;;5.28;1.83;;;;;;;23.70;39.11;98289.00;5040331;28;20052;-58
2021/10/21 10:14:29;;;;;;;1.95;1.10;;;;;;;23.58;39.12;98271.50;5043001;28;20061;-53
2021/10/21 10:16:59;;;;;;;3.13;1.27;;;;;;;23.48;39.45;98276.41;5060729;28;20645;-54
2021/10/21 10:19:29;;;;;;;3.60;1.27;;;;;;;23.38;39.68;98270.44;5046521;28;20694;-54
2021/10/21 10:21:57;;;;;;;3.83;1.30;;;;;;;23.32;39.62;98267.47;5042226;28;20060;-54
2021/10/21 10:24:29;;;;;;;3.83;1.98;;;;;;;23.30;39.57;98274.94;5030394;28;20421;-52
2021/10/21 10:26:58;;;;;;;4.28;1.40;;;;;;;23.25;39.88;98279.28;5046356;28;20055;-56
2021/10/21 10:29:46;;;;;;;3.22;1.23;;;;;;;23.23;40.01;98282.16;5047132;28;20665;-55
2021/10/21 10:32:38;;;;;;;3.30;1.35;;;;;;;23.21;40.25;98294.25;5045284;28;20443;-55
2021/10/21 10:35:08;;;;;;;4.00;1.20;;;;;;;23.21;39.84;98295.09;5043775;28;20049;-51
2021/10/21 10:37:43;;;;;;;2.13;1.05;;;;;;;23.18;40.04;98298.16;5038557;28;20067;-50
2021/10/21 10:40:12;;;;;;;2.00;1.00;;;;;;;23.17;40.18;98287.53;5040664;28;20061;-57
2021/10/21 10:43:00;;;;;;;2.67;1.10;;;;;;;23.15;40.22;98293.13;5045914;28;20281;-54
2021/10/21 10:45:44;;;;;;;2.83;1.58;;;;;;;23.10;40.38;98284.72;5043625;28;20052;-56
2021/10/21 10:48:13;;;;;;;1.90;1.00;;;;;;;23.05;40.20;98289.84;5034456;28;20053;-53
2021/10/21 10:50:53;;;;;;;4.05;1.10;;;;;;;23.02;40.33;98285.63;5039537;28;20524;-58
2021/10/21 10:53:51;;;;;;;3.45;1.38;;;;;;;23.02;40.39;98290.22;5041036;28;20044;-56
2021/10/21 10:56:41;;;;;;;3.05;1.65;;;;;;;23.00;40.42;98287.72;5040652;28;20071;-53
2021/10/21 10:59:20;;;;;;;12.85;2.88;;;;;;;22.95;40.55;98282.00;5044874;28;20052;-55
2021/10/21 11:01:49;;;;;;;3.67;1.42;;;;;;;22.95;40.53;98292.00;5043228;28;20436;-60
2021/10/21 11:04:54;;;;;;;3.38;1.30;;;;;;;22.98;40.62;98286.22;5043654;28;20083;-55
2021/10/21 11:07:24;;;;;;;5.07;1.30;;;;;;;22.95;40.71;98298.28;5041020;28;20055;-55
2021/10/21 11:09:53;;;;;;;3.28;1.05;;;;;;;22.95;41.04;98289.31;5038924;28;20064;-59
2021/10/21 11:12:20;;;;;;;4.13;1.95;;;;;;;22.94;41.24;98282.19;5041305;28;20049;-57
2021/10/21 11:14:54;;;;;;;3.38;1.25;;;;;;;22.94;41.11;98293.03;5046652;28;20055;-56
2021/10/21 11:17:41;;;;;;;3.13;1.20;;;;;;;22.97;41.42;98274.53;5046699;28;20057;-60
2021/10/21 11:20:35;;;;;;;2.47;1.17;;;;;;;22.93;41.28;98281.38;5036575;28;20041;-55
2021/10/21 11:23:05;;;;;;;2.58;1.52;;;;;;;22.90;41.34;98278.16;5030237;28;21496;-57
2021/10/21 11:25:33;;;;;;;5.80;1.52;;;;;;;22.92;41.63;98278.78;5036848;28;20074;-57
2021/10/21 11:28:04;;;;;;;3.22;1.50;;;;;;;22.93;41.31;98272.41;5040695;28;20045;-57
2021/10/21 11:30:32;;;;;;;4.65;1.50;;;;;;;22.92;41.68;98282.41;5040166;28;20056;-58
2021/10/21 11:33:01;;;;;;;3.25;1.48;;;;;;;22.90;41.40;98275.44;5036151;28;20042;-56
2021/10/21 11:35:30;;;;;;;2.88;1.05;;;;;;;22.91;41.20;98288.81;5033520;28;20060;-54
2021/10/21 11:37:59;;;;;;;2.90;1.08;;;;;;;22.84;41.29;98291.41;5027097;28;20864;-54
2021/10/21 11:40:32;;;;;;;3.45;1.52;;;;;;;22.94;40.93;98287.63;5030227;28;20057;-59
2021/10/21 11:43:01;;;;;;;2.65;1.20;;;;;;;23.28;40.59;98287.03;5022852;28;20071;-55
2021/10/21 11:45:31;;;;;;;2.58;1.30;;;;;;;23.42;40.13;98278.03;5047125;28;20790;-54